Weather at Osejava Heliport

Public forecast

Using degrees Celsius for public forecast. Weather courtesy of forecast.io.

Closest aviation weather report (METAR) to Osejava Heliport

Closest report is Brač Airport, 15.3 nm (28.3 km) W.

2024/05/24 07:30 (retrieved 31 minutes ago)

LDSB 240730Z 33006KT 290V020 CAVOK 19/09 Q1020

Closest aviation forecast (TAF) to Osejava Heliport

Closest forecast is Brač Airport, 15.3 nm (28.3 km) W.

2024/05/24 06:27 (retrieved 2 hours ago)

TAF LDSB 240525Z 2406/2506 29005KT CAVOK TX24/2412Z TN12/2503Z BECMG 2410/2412 24009KT BECMG 2412/2414 30010KT BECMG 2422/2500 VRB02KT